sensor_id;sensor_type;location;lat;lon;timestamp;P1;durP1;ratioP1;P2;durP2;ratioP2
16450;SDS011;12243;42.708;23.310;2023-06-01T00:00:56;7.23;;;6.53;;
16450;SDS011;12243;42.708;23.310;2023-06-01T00:03:23;7.17;;;6.57;;
16450;SDS011;12243;42.708;23.310;2023-06-01T00:05:51;6.93;;;6.37;;
16450;SDS011;12243;42.708;23.310;2023-06-01T00:08:18;7.80;;;7.20;;
16450;SDS011;12243;42.708;23.310;2023-06-01T00:10:45;7.13;;;6.53;;
16450;SDS011;12243;42.708;23.310;2023-06-01T00:13:12;7.43;;;6.67;;
16450;SDS011;12243;42.708;23.310;2023-06-01T00:15:39;7.67;;;7.03;;
16450;SDS011;12243;42.708;23.310;2023-06-01T00:18:07;7.37;;;6.67;;
16450;SDS011;12243;42.708;23.310;2023-06-01T00:20:38;8.40;;;6.73;;
16450;SDS011;12243;42.708;23.310;2023-06-01T00:23:05;7.83;;;6.80;;
16450;SDS011;12243;42.708;23.310;2023-06-01T00:25:32;6.50;;;5.90;;
16450;SDS011;12243;42.708;23.310;2023-06-01T00:27:58;8.43;;;6.50;;
16450;SDS011;12243;42.708;23.310;2023-06-01T00:30:27;10.10;;;7.13;;
16450;SDS011;12243;42.708;23.310;2023-06-01T00:32:54;7.30;;;6.67;;
16450;SDS011;12243;42.708;23.310;2023-06-01T00:35:22;7.17;;;6.57;;
16450;SDS011;12243;42.708;23.310;2023-06-01T00:37:49;7.13;;;6.53;;
16450;SDS011;12243;42.708;23.310;2023-06-01T00:40:16;7.07;;;6.37;;
16450;SDS011;12243;42.708;23.310;2023-06-01T00:42:43;7.67;;;6.83;;
16450;SDS011;12243;42.708;23.310;2023-06-01T00:45:10;10.63;;;6.83;;
16450;SDS011;12243;42.708;23.310;2023-06-01T00:47:39;7.97;;;7.27;;
16450;SDS011;12243;42.708;23.310;2023-06-01T00:50:07;7.37;;;6.77;;
16450;SDS011;12243;42.708;23.310;2023-06-01T00:52:37;8.50;;;7.60;;
16450;SDS011;12243;42.708;23.310;2023-06-01T00:55:05;8.83;;;7.67;;
16450;SDS011;12243;42.708;23.310;2023-06-01T00:57:32;9.00;;;8.10;;
16450;SDS011;12243;42.708;23.310;2023-06-01T01:00:00;10.97;;;8.27;;
16450;SDS011;12243;42.708;23.310;2023-06-01T01:02:34;9.73;;;8.47;;
16450;SDS011;12243;42.708;23.310;2023-06-01T01:05:02;22.30;;;9.50;;
16450;SDS011;12243;42.708;23.310;2023-06-01T01:07:48;14.13;;;9.50;;
16450;SDS011;12243;42.708;23.310;2023-06-01T01:10:22;17.67;;;10.43;;
16450;SDS011;12243;42.708;23.310;2023-06-01T01:12:58;21.00;;;9.97;;
16450;SDS011;12243;42.708;23.310;2023-06-01T01:15:35;17.13;;;10.27;;
16450;SDS011;12243;42.708;23.310;2023-06-01T01:18:11;10.30;;;9.20;;
16450;SDS011;12243;42.708;23.310;2023-06-01T01:20:44;12.97;;;9.90;;
16450;SDS011;12243;42.708;23.310;2023-06-01T01:23:24;12.53;;;9.43;;
16450;SDS011;12243;42.708;23.310;2023-06-01T01:29:08;20.03;;;8.80;;
16450;SDS011;12243;42.708;23.310;2023-06-01T01:35:24;15.27;;;10.53;;
16450;SDS011;12243;42.708;23.310;2023-06-01T01:37:55;17.40;;;10.87;;
16450;SDS011;12243;42.708;23.310;2023-06-01T01:40:23;13.70;;;11.57;;
16450;SDS011;12243;42.708;23.310;2023-06-01T01:42:51;16.40;;;12.50;;
16450;SDS011;12243;42.708;23.310;2023-06-01T01:45:21;13.67;;;11.40;;
16450;SDS011;12243;42.708;23.310;2023-06-01T01:47:49;11.97;;;10.77;;
16450;SDS011;12243;42.708;23.310;2023-06-01T01:50:21;21.17;;;12.17;;
16450;SDS011;12243;42.708;23.310;2023-06-01T01:52:53;14.93;;;11.67;;
16450;SDS011;12243;42.708;23.310;2023-06-01T01:55:22;14.60;;;12.63;;
16450;SDS011;12243;42.708;23.310;2023-06-01T01:57:50;18.03;;;12.40;;
16450;SDS011;12243;42.708;23.310;2023-06-01T02:00:18;14.90;;;11.73;;
16450;SDS011;12243;42.708;23.310;2023-06-01T02:02:48;14.90;;;13.03;;
16450;SDS011;12243;42.708;23.310;2023-06-01T02:05:15;15.37;;;12.27;;
16450;SDS011;12243;42.708;23.310;2023-06-01T02:07:44;14.03;;;12.17;;
16450;SDS011;12243;42.708;23.310;2023-06-01T02:10:11;14.03;;;12.57;;
16450;SDS011;12243;42.708;23.310;2023-06-01T02:12:38;15.13;;;13.00;;
16450;SDS011;12243;42.708;23.310;2023-06-01T02:15:06;15.00;;;12.37;;
16450;SDS011;12243;42.708;23.310;2023-06-01T02:17:35;16.53;;;14.10;;
16450;SDS011;12243;42.708;23.310;2023-06-01T02:20:03;17.70;;;13.20;;
16450;SDS011;12243;42.708;23.310;2023-06-01T02:22:31;17.23;;;13.60;;
16450;SDS011;12243;42.708;23.310;2023-06-01T02:24:58;16.50;;;13.47;;
16450;SDS011;12243;42.708;23.310;2023-06-01T02:27:25;14.13;;;12.63;;
16450;SDS011;12243;42.708;23.310;2023-06-01T02:29:52;15.93;;;12.73;;
16450;SDS011;12243;42.708;23.310;2023-06-01T02:32:19;20.00;;;13.50;;
16450;SDS011;12243;42.708;23.310;2023-06-01T02:34:47;18.03;;;13.57;;
16450;SDS011;12243;42.708;23.310;2023-06-01T02:37:15;15.33;;;13.17;;
16450;SDS011;12243;42.708;23.310;2023-06-01T02:39:42;17.97;;;13.67;;
16450;SDS011;12243;42.708;23.310;2023-06-01T02:42:10;17.34;;;13.30;;
16450;SDS011;12243;42.708;23.310;2023-06-01T02:44:37;18.80;;;14.27;;
16450;SDS011;12243;42.708;23.310;2023-06-01T02:47:04;19.87;;;12.87;;
16450;SDS011;12243;42.708;23.310;2023-06-01T02:49:32;17.93;;;13.27;;
16450;SDS011;12243;42.708;23.310;2023-06-01T02:52:00;20.87;;;14.87;;
16450;SDS011;12243;42.708;23.310;2023-06-01T02:54:27;18.80;;;13.40;;
16450;SDS011;12243;42.708;23.310;2023-06-01T02:56:55;18.33;;;14.00;;
16450;SDS011;12243;42.708;23.310;2023-06-01T02:59:33;16.33;;;13.10;;
16450;SDS011;12243;42.708;23.310;2023-06-01T03:02:02;19.10;;;12.80;;
16450;SDS011;12243;42.708;23.310;2023-06-01T03:04:30;17.30;;;12.47;;
16450;SDS011;12243;42.708;23.310;2023-06-01T03:06:58;20.33;;;13.53;;
16450;SDS011;12243;42.708;23.310;2023-06-01T03:09:36;19.90;;;14.07;;
16450;SDS011;12243;42.708;23.310;2023-06-01T03:12:26;18.57;;;13.87;;
16450;SDS011;12243;42.708;23.310;2023-06-01T03:14:53;14.47;;;12.97;;
16450;SDS011;12243;42.708;23.310;2023-06-01T03:17:20;18.73;;;14.13;;
16450;SDS011;12243;42.708;23.310;2023-06-01T03:19:47;19.88;;;14.45;;
16450;SDS011;12243;42.708;23.310;2023-06-01T03:22:20;17.50;;;14.00;;
16450;SDS011;12243;42.708;23.310;2023-06-01T03:24:49;20.87;;;14.43;;
16450;SDS011;12243;42.708;23.310;2023-06-01T03:27:19;21.03;;;15.10;;
16450;SDS011;12243;42.708;23.310;2023-06-01T03:29:46;19.47;;;15.20;;
16450;SDS011;12243;42.708;23.310;2023-06-01T03:32:13;22.47;;;17.13;;
16450;SDS011;12243;42.708;23.310;2023-06-01T03:34:41;18.60;;;14.80;;
16450;SDS011;12243;42.708;23.310;2023-06-01T03:37:08;19.15;;;14.80;;
16450;SDS011;12243;42.708;23.310;2023-06-01T03:39:37;17.08;;;13.55;;
16450;SDS011;12243;42.708;23.310;2023-06-01T03:42:08;20.85;;;15.65;;
16450;SDS011;12243;42.708;23.310;2023-06-01T03:44:36;20.27;;;14.33;;
16450;SDS011;12243;42.708;23.310;2023-06-01T03:47:03;17.40;;;14.53;;
16450;SDS011;12243;42.708;23.310;2023-06-01T03:49:30;21.67;;;16.23;;
16450;SDS011;12243;42.708;23.310;2023-06-01T03:51:59;19.75;;;15.40;;
16450;SDS011;12243;42.708;23.310;2023-06-01T03:54:26;22.90;;;15.48;;
16450;SDS011;12243;42.708;23.310;2023-06-01T03:56:54;21.65;;;16.13;;
16450;SDS011;12243;42.708;23.310;2023-06-01T03:59:22;20.27;;;16.50;;
16450;SDS011;12243;42.708;23.310;2023-06-01T04:01:49;21.37;;;15.63;;
16450;SDS011;12243;42.708;23.310;2023-06-01T04:04:20;23.20;;;15.77;;
16450;SDS011;12243;42.708;23.310;2023-06-01T04:07:00;20.67;;;15.57;;
16450;SDS011;12243;42.708;23.310;2023-06-01T04:09:28;23.83;;;15.48;;
16450;SDS011;12243;42.708;23.310;2023-06-01T04:11:55;22.55;;;15.38;;
16450;SDS011;12243;42.708;23.310;2023-06-01T04:14:23;16.42;;;12.75;;
16450;SDS011;12243;42.708;23.310;2023-06-01T04:16:50;16.48;;;13.95;;
16450;SDS011;12243;42.708;23.310;2023-06-01T04:19:17;18.23;;;13.70;;
16450;SDS011;12243;42.708;23.310;2023-06-01T04:21:47;17.70;;;13.83;;
16450;SDS011;12243;42.708;23.310;2023-06-01T04:24:15;17.80;;;13.57;;
16450;SDS011;12243;42.708;23.310;2023-06-01T04:26:42;17.90;;;13.25;;
16450;SDS011;12243;42.708;23.310;2023-06-01T04:29:10;14.50;;;12.85;;
16450;SDS011;12243;42.708;23.310;2023-06-01T04:31:38;14.82;;;12.88;;
16450;SDS011;12243;42.708;23.310;2023-06-01T04:34:06;16.03;;;12.87;;
16450;SDS011;12243;42.708;23.310;2023-06-01T04:36:35;17.00;;;13.65;;
16450;SDS011;12243;42.708;23.310;2023-06-01T04:39:05;15.25;;;12.90;;
16450;SDS011;12243;42.708;23.310;2023-06-01T04:41:33;15.85;;;14.13;;
16450;SDS011;12243;42.708;23.310;2023-06-01T04:44:01;17.70;;;14.50;;
16450;SDS011;12243;42.708;23.310;2023-06-01T04:46:31;19.42;;;14.40;;
16450;SDS011;12243;42.708;23.310;2023-06-01T04:49:02;17.87;;;14.10;;
16450;SDS011;12243;42.708;23.310;2023-06-01T04:51:30;18.03;;;14.83;;
16450;SDS011;12243;42.708;23.310;2023-06-01T04:53:58;17.60;;;13.90;;
16450;SDS011;12243;42.708;23.310;2023-06-01T04:56:25;18.40;;;14.50;;
16450;SDS011;12243;42.708;23.310;2023-06-01T04:58:53;18.40;;;14.97;;
16450;SDS011;12243;42.708;23.310;2023-06-01T05:01:22;17.73;;;14.50;;
16450;SDS011;12243;42.708;23.310;2023-06-01T05:03:51;17.43;;;14.10;;
16450;SDS011;12243;42.708;23.310;2023-06-01T05:06:22;20.43;;;14.90;;
16450;SDS011;12243;42.708;23.310;2023-06-01T05:08:51;16.00;;;14.10;;
16450;SDS011;12243;42.708;23.310;2023-06-01T05:11:18;16.93;;;15.03;;
16450;SDS011;12243;42.708;23.310;2023-06-01T05:13:46;16.87;;;14.17;;
16450;SDS011;12243;42.708;23.310;2023-06-01T05:16:13;22.50;;;16.23;;
16450;SDS011;12243;42.708;23.310;2023-06-01T05:18:40;19.90;;;15.15;;
16450;SDS011;12243;42.708;23.310;2023-06-01T05:21:08;17.98;;;15.20;;
16450;SDS011;12243;42.708;23.310;2023-06-01T05:23:36;17.35;;;15.05;;
16450;SDS011;12243;42.708;23.310;2023-06-01T05:26:03;15.77;;;13.95;;
16450;SDS011;12243;42.708;23.310;2023-06-01T05:28:33;17.55;;;14.15;;
16450;SDS011;12243;42.708;23.310;2023-06-01T05:31:01;18.67;;;14.82;;
16450;SDS011;12243;42.708;23.310;2023-06-01T05:33:30;18.92;;;15.65;;
16450;SDS011;12243;42.708;23.310;2023-06-01T05:35:57;19.38;;;14.45;;
16450;SDS011;12243;42.708;23.310;2023-06-01T05:38:26;17.42;;;15.35;;
16450;SDS011;12243;42.708;23.310;2023-06-01T05:40:54;18.80;;;14.88;;
16450;SDS011;12243;42.708;23.310;2023-06-01T05:43:21;16.67;;;14.48;;
16450;SDS011;12243;42.708;23.310;2023-06-01T05:45:49;16.38;;;14.68;;
16450;SDS011;12243;42.708;23.310;2023-06-01T05:48:16;19.63;;;15.75;;
16450;SDS011;12243;42.708;23.310;2023-06-01T05:50:48;20.52;;;16.63;;
16450;SDS011;12243;42.708;23.310;2023-06-01T05:53:16;18.25;;;15.27;;
16450;SDS011;12243;42.708;23.310;2023-06-01T05:55:43;16.73;;;14.65;;
16450;SDS011;12243;42.708;23.310;2023-06-01T05:58:12;19.00;;;14.63;;
16450;SDS011;12243;42.708;23.310;2023-06-01T06:00:39;18.33;;;14.93;;
16450;SDS011;12243;42.708;23.310;2023-06-01T06:03:06;16.25;;;14.55;;
16450;SDS011;12243;42.708;23.310;2023-06-01T06:05:33;17.30;;;15.15;;
16450;SDS011;12243;42.708;23.310;2023-06-01T06:07:59;24.73;;;17.90;;
16450;SDS011;12243;42.708;23.310;2023-06-01T06:10:26;24.58;;;17.80;;
16450;SDS011;12243;42.708;23.310;2023-06-01T06:12:53;20.95;;;17.15;;
16450;SDS011;12243;42.708;23.310;2023-06-01T06:15:22;24.27;;;18.10;;
16450;SDS011;12243;42.708;23.310;2023-06-01T06:17:48;24.55;;;18.95;;
16450;SDS011;12243;42.708;23.310;2023-06-01T06:20:15;23.05;;;18.63;;
16450;SDS011;12243;42.708;23.310;2023-06-01T06:22:48;18.23;;;15.52;;
16450;SDS011;12243;42.708;23.310;2023-06-01T06:25:15;20.95;;;15.90;;
16450;SDS011;12243;42.708;23.310;2023-06-01T06:27:42;17.25;;;15.15;;
16450;SDS011;12243;42.708;23.310;2023-06-01T06:30:11;17.65;;;15.43;;
16450;SDS011;12243;42.708;23.310;2023-06-01T06:32:39;18.30;;;15.60;;
16450;SDS011;12243;42.708;23.310;2023-06-01T06:35:06;17.15;;;14.93;;
16450;SDS011;12243;42.708;23.310;2023-06-01T06:37:38;16.25;;;14.55;;
16450;SDS011;12243;42.708;23.310;2023-06-01T06:40:05;20.33;;;14.73;;
16450;SDS011;12243;42.708;23.310;2023-06-01T06:42:34;18.00;;;14.82;;
16450;SDS011;12243;42.708;23.310;2023-06-01T06:45:01;16.52;;;14.75;;
16450;SDS011;12243;42.708;23.310;2023-06-01T06:47:30;17.48;;;14.95;;
16450;SDS011;12243;42.708;23.310;2023-06-01T06:49:58;17.75;;;14.98;;
16450;SDS011;12243;42.708;23.310;2023-06-01T06:52:25;16.00;;;14.40;;
16450;SDS011;12243;42.708;23.310;2023-06-01T06:54:52;15.68;;;13.95;;
16450;SDS011;12243;42.708;23.310;2023-06-01T06:57:19;15.68;;;14.20;;
16450;SDS011;12243;42.708;23.310;2023-06-01T06:59:46;15.75;;;13.82;;
16450;SDS011;12243;42.708;23.310;2023-06-01T07:02:13;17.38;;;14.70;;
16450;SDS011;12243;42.708;23.310;2023-06-01T07:04:40;18.50;;;15.38;;
16450;SDS011;12243;42.708;23.310;2023-06-01T07:07:08;16.85;;;15.05;;
16450;SDS011;12243;42.708;23.310;2023-06-01T07:09:35;17.58;;;15.57;;
16450;SDS011;12243;42.708;23.310;2023-06-01T07:12:02;17.08;;;14.75;;
16450;SDS011;12243;42.708;23.310;2023-06-01T07:14:31;20.23;;;16.40;;
16450;SDS011;12243;42.708;23.310;2023-06-01T07:16:58;19.90;;;17.00;;
16450;SDS011;12243;42.708;23.310;2023-06-01T07:19:25;23.10;;;16.80;;
16450;SDS011;12243;42.708;23.310;2023-06-01T07:21:58;18.42;;;16.42;;
16450;SDS011;12243;42.708;23.310;2023-06-01T07:24:26;18.65;;;16.65;;
16450;SDS011;12243;42.708;23.310;2023-06-01T07:26:54;19.38;;;16.65;;
16450;SDS011;12243;42.708;23.310;2023-06-01T07:29:22;20.73;;;17.00;;
16450;SDS011;12243;42.708;23.310;2023-06-01T07:31:51;25.40;;;18.27;;
16450;SDS011;12243;42.708;23.310;2023-06-01T07:34:19;23.25;;;18.05;;
16450;SDS011;12243;42.708;23.310;2023-06-01T07:36:46;21.63;;;17.83;;
16450;SDS011;12243;42.708;23.310;2023-06-01T07:39:15;22.60;;;18.02;;
16450;SDS011;12243;42.708;23.310;2023-06-01T07:41:45;23.75;;;18.52;;
16450;SDS011;12243;42.708;23.310;2023-06-01T07:44:12;24.35;;;17.15;;
16450;SDS011;12243;42.708;23.310;2023-06-01T07:46:44;20.10;;;17.27;;
16450;SDS011;12243;42.708;23.310;2023-06-01T07:49:11;22.02;;;17.90;;
16450;SDS011;12243;42.708;23.310;2023-06-01T07:51:39;18.50;;;16.60;;
16450;SDS011;12243;42.708;23.310;2023-06-01T07:54:06;22.67;;;16.77;;
16450;SDS011;12243;42.708;23.310;2023-06-01T07:56:33;19.77;;;17.08;;
16450;SDS011;12243;42.708;23.310;2023-06-01T07:59:02;19.30;;;17.02;;
16450;SDS011;12243;42.708;23.310;2023-06-01T08:01:29;19.75;;;16.88;;
16450;SDS011;12243;42.708;23.310;2023-06-01T08:03:56;22.27;;;18.02;;
16450;SDS011;12243;42.708;23.310;2023-06-01T08:06:23;21.48;;;17.60;;
16450;SDS011;12243;42.708;23.310;2023-06-01T08:08:51;21.42;;;17.50;;
16450;SDS011;12243;42.708;23.310;2023-06-01T08:11:19;21.88;;;16.55;;
16450;SDS011;12243;42.708;23.310;2023-06-01T08:13:47;18.05;;;15.75;;
16450;SDS011;12243;42.708;23.310;2023-06-01T08:16:15;19.60;;;15.68;;
16450;SDS011;12243;42.708;23.310;2023-06-01T08:18:42;18.08;;;16.00;;
16450;SDS011;12243;42.708;23.310;2023-06-01T08:21:09;18.08;;;15.35;;
16450;SDS011;12243;42.708;23.310;2023-06-01T08:23:36;18.73;;;14.82;;
16450;SDS011;12243;42.708;23.310;2023-06-01T08:26:04;16.67;;;13.95;;
16450;SDS011;12243;42.708;23.310;2023-06-01T08:28:31;14.73;;;12.95;;
16450;SDS011;12243;42.708;23.310;2023-06-01T08:30:58;13.57;;;12.15;;
16450;SDS011;12243;42.708;23.310;2023-06-01T08:33:27;13.98;;;11.88;;
16450;SDS011;12243;42.708;23.310;2023-06-01T08:35:54;13.45;;;12.15;;
16450;SDS011;12243;42.708;23.310;2023-06-01T08:38:21;12.75;;;11.50;;
16450;SDS011;12243;42.708;23.310;2023-06-01T08:40:50;13.38;;;11.98;;
16450;SDS011;12243;42.708;23.310;2023-06-01T08:43:17;13.10;;;11.75;;
16450;SDS011;12243;42.708;23.310;2023-06-01T08:45:46;12.63;;;11.43;;
16450;SDS011;12243;42.708;23.310;2023-06-01T08:48:15;13.70;;;12.15;;
16450;SDS011;12243;42.708;23.310;2023-06-01T08:50:46;13.30;;;12.10;;
16450;SDS011;12243;42.708;23.310;2023-06-01T08:53:15;12.38;;;11.18;;
16450;SDS011;12243;42.708;23.310;2023-06-01T08:55:46;13.27;;;11.98;;
16450;SDS011;12243;42.708;23.310;2023-06-01T08:58:17;15.32;;;12.48;;
16450;SDS011;12243;42.708;23.310;2023-06-01T09:00:46;14.05;;;12.25;;
16450;SDS011;12243;42.708;23.310;2023-06-01T09:03:14;20.60;;;18.58;;
16450;SDS011;12243;42.708;23.310;2023-06-01T09:05:41;13.10;;;11.88;;
16450;SDS011;12243;42.708;23.310;2023-06-01T09:08:10;12.35;;;10.95;;
16450;SDS011;12243;42.708;23.310;2023-06-01T09:10:38;11.85;;;10.65;;
16450;SDS011;12243;42.708;23.310;2023-06-01T09:13:07;12.15;;;10.60;;
16450;SDS011;12243;42.708;23.310;2023-06-01T09:15:34;11.82;;;10.63;;
16450;SDS011;12243;42.708;23.310;2023-06-01T09:18:04;12.00;;;10.80;;
16450;SDS011;12243;42.708;23.310;2023-06-01T09:20:32;12.27;;;11.05;;
16450;SDS011;12243;42.708;23.310;2023-06-01T09:23:00;13.00;;;11.60;;
16450;SDS011;12243;42.708;23.310;2023-06-01T09:25:29;13.45;;;11.85;;
16450;SDS011;12243;42.708;23.310;2023-06-01T09:27:58;12.85;;;11.52;;
16450;SDS011;12243;42.708;23.310;2023-06-01T09:30:26;12.07;;;10.88;;
16450;SDS011;12243;42.708;23.310;2023-06-01T09:33:09;12.32;;;11.13;;
16450;SDS011;12243;42.708;23.310;2023-06-01T09:35:39;11.93;;;10.73;;
16450;SDS011;12243;42.708;23.310;2023-06-01T09:38:08;11.20;;;10.10;;
16450;SDS011;12243;42.708;23.310;2023-06-01T09:40:38;9.55;;;8.68;;
16450;SDS011;12243;42.708;23.310;2023-06-01T09:43:18;8.68;;;7.88;;
16450;SDS011;12243;42.708;23.310;2023-06-01T09:45:53;8.65;;;7.85;;
16450;SDS011;12243;42.708;23.310;2023-06-01T09:48:31;7.90;;;7.15;;
16450;SDS011;12243;42.708;23.310;2023-06-01T09:50:58;7.03;;;6.32;;
16450;SDS011;12243;42.708;23.310;2023-06-01T09:53:25;7.13;;;6.53;;
16450;SDS011;12243;42.708;23.310;2023-06-01T09:55:57;6.18;;;5.78;;
16450;SDS011;12243;42.708;23.310;2023-06-01T09:58:25;6.47;;;5.88;;
16450;SDS011;12243;42.708;23.310;2023-06-01T10:00:52;6.43;;;5.88;;
16450;SDS011;12243;42.708;23.310;2023-06-01T10:03:20;5.30;;;5.00;;
16450;SDS011;12243;42.708;23.310;2023-06-01T10:05:48;5.47;;;5.07;;
16450;SDS011;12243;42.708;23.310;2023-06-01T10:08:16;5.85;;;5.13;;
16450;SDS011;12243;42.708;23.310;2023-06-01T10:10:45;5.57;;;5.07;;
16450;SDS011;12243;42.708;23.310;2023-06-01T10:13:14;5.63;;;5.03;;
16450;SDS011;12243;42.708;23.310;2023-06-01T10:15:41;5.03;;;4.68;;
16450;SDS011;12243;42.708;23.310;2023-06-01T10:18:08;5.25;;;4.75;;
16450;SDS011;12243;42.708;23.310;2023-06-01T10:20:35;5.32;;;4.82;;
16450;SDS011;12243;42.708;23.310;2023-06-01T10:23:04;5.72;;;5.20;;
16450;SDS011;12243;42.708;23.310;2023-06-01T10:25:34;5.75;;;5.25;;
16450;SDS011;12243;42.708;23.310;2023-06-01T10:28:06;7.05;;;6.35;;
16450;SDS011;12243;42.708;23.310;2023-06-01T10:30:39;7.32;;;6.72;;
16450;SDS011;12243;42.708;23.310;2023-06-01T10:33:06;6.03;;;5.40;;
16450;SDS011;12243;42.708;23.310;2023-06-01T10:38:28;5.13;;;4.70;;
16450;SDS011;12243;42.708;23.310;2023-06-01T10:43:55;4.40;;;4.10;;
16450;SDS011;12243;42.708;23.310;2023-06-01T10:46:37;3.83;;;3.63;;
16450;SDS011;12243;42.708;23.310;2023-06-01T10:49:06;4.53;;;4.22;;
16450;SDS011;12243;42.708;23.310;2023-06-01T10:51:34;4.70;;;4.30;;
16450;SDS011;12243;42.708;23.310;2023-06-01T10:59:45;5.63;;;5.22;;
16450;SDS011;12243;42.708;23.310;2023-06-01T11:02:51;8.07;;;5.45;;
16450;SDS011;12243;42.708;23.310;2023-06-01T11:05:33;6.43;;;5.82;;
16450;SDS011;12243;42.708;23.310;2023-06-01T11:08:04;5.22;;;4.55;;
16450;SDS011;12243;42.708;23.310;2023-06-01T11:13:24;5.32;;;4.68;;
16450;SDS011;12243;42.708;23.310;2023-06-01T11:18:57;5.13;;;4.63;;
16450;SDS011;12243;42.708;23.310;2023-06-01T11:21:26;4.40;;;4.10;;
16450;SDS011;12243;42.708;23.310;2023-06-01T11:23:54;5.60;;;5.10;;
16450;SDS011;12243;42.708;23.310;2023-06-01T11:26:28;4.55;;;4.28;;
16450;SDS011;12243;42.708;23.310;2023-06-01T11:29:04;4.97;;;4.57;;
16450;SDS011;12243;42.708;23.310;2023-06-01T11:31:39;5.50;;;4.78;;
16450;SDS011;12243;42.708;23.310;2023-06-01T11:34:09;5.22;;;4.75;;
16450;SDS011;12243;42.708;23.310;2023-06-01T11:36:38;5.57;;;5.07;;
16450;SDS011;12243;42.708;23.310;2023-06-01T11:39:15;4.82;;;4.50;;
16450;SDS011;12243;42.708;23.310;2023-06-01T11:41:46;4.45;;;3.97;;
16450;SDS011;12243;42.708;23.310;2023-06-01T11:44:13;4.30;;;4.00;;
16450;SDS011;12243;42.708;23.310;2023-06-01T11:46:50;4.50;;;4.20;;
16450;SDS011;12243;42.708;23.310;2023-06-01T11:49:20;4.53;;;4.13;;
16450;SDS011;12243;42.708;23.310;2023-06-01T11:51:47;4.40;;;4.10;;
16450;SDS011;12243;42.708;23.310;2023-06-01T11:54:16;3.70;;;3.40;;
16450;SDS011;12243;42.708;23.310;2023-06-01T11:56:47;3.90;;;3.60;;
16450;SDS011;12243;42.708;23.310;2023-06-01T11:59:14;4.07;;;3.88;;
16450;SDS011;12243;42.708;23.310;2023-06-01T12:01:42;3.80;;;3.58;;
16450;SDS011;12243;42.708;23.310;2023-06-01T12:04:11;4.18;;;3.83;;
16450;SDS011;12243;42.708;23.310;2023-06-01T12:06:40;3.50;;;3.25;;
16450;SDS011;12243;42.708;23.310;2023-06-01T12:09:08;4.28;;;3.80;;
16450;SDS011;12243;42.708;23.310;2023-06-01T12:11:36;4.35;;;3.85;;
16450;SDS011;12243;42.708;23.310;2023-06-01T12:14:04;4.75;;;4.28;;
16450;SDS011;12243;42.708;23.310;2023-06-01T12:19:26;4.28;;;3.97;;
16450;SDS011;12243;42.708;23.310;2023-06-01T12:21:55;3.80;;;3.50;;
16450;SDS011;12243;42.708;23.310;2023-06-01T12:24:26;4.72;;;4.32;;
16450;SDS011;12243;42.708;23.310;2023-06-01T12:26:54;4.93;;;4.53;;
16450;SDS011;12243;42.708;23.310;2023-06-01T12:29:37;4.72;;;4.32;;
16450;SDS011;12243;42.708;23.310;2023-06-01T12:32:07;5.47;;;3.88;;
16450;SDS011;12243;42.708;23.310;2023-06-01T12:34:34;4.20;;;3.80;;
16450;SDS011;12243;42.708;23.310;2023-06-01T12:37:16;3.97;;;3.63;;
16450;SDS011;12243;42.708;23.310;2023-06-01T12:39:43;3.47;;;3.22;;
16450;SDS011;12243;42.708;23.310;2023-06-01T12:42:17;4.28;;;3.88;;
16450;SDS011;12243;42.708;23.310;2023-06-01T12:44:44;4.57;;;3.60;;
16450;SDS011;12243;42.708;23.310;2023-06-01T12:47:11;4.85;;;4.53;;
16450;SDS011;12243;42.708;23.310;2023-06-01T12:49:38;4.82;;;4.32;;
16450;SDS011;12243;42.708;23.310;2023-06-01T12:52:06;4.70;;;4.30;;
16450;SDS011;12243;42.708;23.310;2023-06-01T12:54:35;5.28;;;4.75;;
16450;SDS011;12243;42.708;23.310;2023-06-01T12:57:02;6.53;;;4.72;;
16450;SDS011;12243;42.708;23.310;2023-06-01T12:59:29;5.38;;;4.47;;
16450;SDS011;12243;42.708;23.310;2023-06-01T13:01:56;4.30;;;3.95;;
16450;SDS011;12243;42.708;23.310;2023-06-01T13:04:23;4.70;;;4.30;;
16450;SDS011;12243;42.708;23.310;2023-06-01T13:06:53;5.15;;;4.65;;
16450;SDS011;12243;42.708;23.310;2023-06-01T13:09:20;4.60;;;4.20;;
16450;SDS011;12243;42.708;23.310;2023-06-01T13:11:48;5.07;;;4.68;;
16450;SDS011;12243;42.708;23.310;2023-06-01T13:14:16;5.75;;;5.25;;
16450;SDS011;12243;42.708;23.310;2023-06-01T13:16:43;5.55;;;5.05;;
16450;SDS011;12243;42.708;23.310;2023-06-01T13:19:10;8.38;;;6.18;;
16450;SDS011;12243;42.708;23.310;2023-06-01T13:21:37;10.05;;;6.25;;
16450;SDS011;12243;42.708;23.310;2023-06-01T13:24:04;5.82;;;4.65;;
16450;SDS011;12243;42.708;23.310;2023-06-01T13:26:32;5.38;;;4.82;;
16450;SDS011;12243;42.708;23.310;2023-06-01T13:29:01;4.95;;;4.65;;
16450;SDS011;12243;42.708;23.310;2023-06-01T13:31:31;4.60;;;4.30;;
16450;SDS011;12243;42.708;23.310;2023-06-01T13:33:58;5.55;;;4.95;;
16450;SDS011;12243;42.708;23.310;2023-06-01T13:36:27;5.28;;;4.78;;
16450;SDS011;12243;42.708;23.310;2023-06-01T13:38:56;5.00;;;4.55;;
16450;SDS011;12243;42.708;23.310;2023-06-01T13:41:23;4.18;;;3.67;;
16450;SDS011;12243;42.708;23.310;2023-06-01T13:43:50;4.65;;;3.58;;
16450;SDS011;12243;42.708;23.310;2023-06-01T13:46:19;4.28;;;3.90;;
16450;SDS011;12243;42.708;23.310;2023-06-01T13:48:46;4.70;;;4.30;;
16450;SDS011;12243;42.708;23.310;2023-06-01T13:51:12;5.97;;;4.32;;
16450;SDS011;12243;42.708;23.310;2023-06-01T13:53:39;4.22;;;3.83;;
16450;SDS011;12243;42.708;23.310;2023-06-01T13:56:06;4.05;;;3.75;;
16450;SDS011;12243;42.708;23.310;2023-06-01T13:58:33;4.88;;;4.18;;
16450;SDS011;12243;42.708;23.310;2023-06-01T14:01:00;5.28;;;3.72;;
16450;SDS011;12243;42.708;23.310;2023-06-01T14:03:28;3.80;;;3.50;;
16450;SDS011;12243;42.708;23.310;2023-06-01T14:05:55;3.72;;;3.42;;
16450;SDS011;12243;42.708;23.310;2023-06-01T14:08:22;5.22;;;3.97;;
16450;SDS011;12243;42.708;23.310;2023-06-01T14:10:50;4.45;;;4.05;;
16450;SDS011;12243;42.708;23.310;2023-06-01T14:13:17;3.95;;;3.50;;
16450;SDS011;12243;42.708;23.310;2023-06-01T14:15:43;3.67;;;3.38;;
16450;SDS011;12243;42.708;23.310;2023-06-01T14:18:10;3.60;;;3.30;;
16450;SDS011;12243;42.708;23.310;2023-06-01T14:20:39;4.13;;;3.83;;
16450;SDS011;12243;42.708;23.310;2023-06-01T14:23:05;3.50;;;3.30;;
16450;SDS011;12243;42.708;23.310;2023-06-01T14:25:35;4.10;;;3.67;;
16450;SDS011;12243;42.708;23.310;2023-06-01T14:28:02;4.13;;;3.70;;
16450;SDS011;12243;42.708;23.310;2023-06-01T14:30:29;5.38;;;3.63;;
16450;SDS011;12243;42.708;23.310;2023-06-01T14:32:56;3.63;;;3.33;;
16450;SDS011;12243;42.708;23.310;2023-06-01T14:35:23;3.80;;;3.50;;
16450;SDS011;12243;42.708;23.310;2023-06-01T14:37:52;3.95;;;3.65;;
16450;SDS011;12243;42.708;23.310;2023-06-01T14:40:20;4.35;;;3.58;;
16450;SDS011;12243;42.708;23.310;2023-06-01T14:42:47;4.57;;;4.20;;
16450;SDS011;12243;42.708;23.310;2023-06-01T14:45:14;3.70;;;3.40;;
16450;SDS011;12243;42.708;23.310;2023-06-01T14:47:41;3.67;;;3.35;;
16450;SDS011;12243;42.708;23.310;2023-06-01T14:50:08;3.65;;;3.35;;
16450;SDS011;12243;42.708;23.310;2023-06-01T14:52:36;4.88;;;3.95;;
16450;SDS011;12243;42.708;23.310;2023-06-01T14:55:05;3.63;;;3.33;;